Portada
METAR-TAF:

METAR-TAF

Aeroports :

Brest, Bielorússia

latitud: 52-06-30N, longitud: 023-53-48E, altitud: 143 m

Observació

L'informe es va fer fa 2 hores i 25 minuts, a les 13:30 UTC
Vent 10 kt del Est/Nord-Est
Temperatura 28°C
Humitat 35%
Pressió 1021 hPa
Visibilitat 10 km o més
sense núvols per sota de 1500 mi sense presència de cumulonimbus.

METAR: UMBB 181330Z 06005MPS CAVOK 28/11 Q1021 R11/CLRD// NOSIG

Hora: 18:55 (15:55 UTC)

Pronòstic

L'informe es va fer fa 4 hores i 46 minuts, a les 11:09 UTC
Pronòstic vàlid del 18 a les 12 UTC al 18 a les 21 UTC
Vent 6 kt del Est
Visibilitat 10 km o més
sense núvols per sota de 1500 mi sense presència de cumulonimbus.
Temporalment
l' 18 a les 12 UTC al 18 a les 16 UTC
Vent 6 kt del Est/Sud-Est amb ràfegues de 16 kt

TAF: UMBB 181109Z 1812/1821 09003MPS CAVOK TX29/1815Z TN19/1821Z TEMPO 1812/1816 11003G08MPS

Observacions i pronòstics meteorològics de més de 4000 aeroports (METAR i TAF).

Les estacions disponibles són els punts grocs i vermells al mapa.

Posi el ratolí al punt desitjat per veure el nom de l'estació.

Feu clic per veure les observacions i els pronòstics meteorològics.

Per canviar el mapa: feu clic els botons verds amb una creu de color negre per apropar; al botó verd amb un guió per allunyar la imatge; o en les fletxes verdes per a mapes adjacents.


METAR-TAF: